Terminal Aerodrome Forecast
Issued by NWS Cleveland, OH

Home | Current Version | Previous Version | Graphics & Text | Print | Product List | Glossary On
Versions: 1 2 3 4 5 6 7 8 9 10 11 12 13 14 15 16 17 18 19 20 21 22 23 24 25
000
FTUS41 KCLE 271454 AAB
TAFCLE
TAF AMD
KCLE 271454Z 2715/2818 36008KT P6SM SCT025 OVC040
      TEMPO 2715/2717 BKN025
     FM272200 01006KT P6SM SCT040
     FM280300 15003KT P6SM SCT250=

USA.gov is the U.S. government's official web portal to all federal, state and local government web resources and services.